sensor_id;sensor_type;location;lat;lon;timestamp;P1;durP1;ratioP1;P2;durP2;ratioP2
40591;SDS011;26301;42.832;23.918;2023-04-15T00:00:38;3.83;;;0.93;;
40591;SDS011;26301;42.832;23.918;2023-04-15T00:03:05;1.23;;;0.77;;
40591;SDS011;26301;42.832;23.918;2023-04-15T00:05:31;2.20;;;0.97;;
40591;SDS011;26301;42.832;23.918;2023-04-15T00:07:57;2.10;;;0.97;;
40591;SDS011;26301;42.832;23.918;2023-04-15T00:10:24;0.97;;;0.60;;
40591;SDS011;26301;42.832;23.918;2023-04-15T00:12:50;1.50;;;0.70;;
40591;SDS011;26301;42.832;23.918;2023-04-15T00:15:17;4.40;;;1.40;;
40591;SDS011;26301;42.832;23.918;2023-04-15T00:17:43;2.53;;;1.10;;
40591;SDS011;26301;42.832;23.918;2023-04-15T00:20:10;1.67;;;0.90;;
40591;SDS011;26301;42.832;23.918;2023-04-15T00:22:40;1.10;;;0.53;;
40591;SDS011;26301;42.832;23.918;2023-04-15T00:25:06;1.10;;;0.60;;
40591;SDS011;26301;42.832;23.918;2023-04-15T00:27:32;1.07;;;0.50;;
40591;SDS011;26301;42.832;23.918;2023-04-15T00:29:58;2.30;;;1.00;;
40591;SDS011;26301;42.832;23.918;2023-04-15T00:32:24;2.30;;;0.70;;
40591;SDS011;26301;42.832;23.918;2023-04-15T00:34:50;1.20;;;0.60;;
40591;SDS011;26301;42.832;23.918;2023-04-15T00:37:16;0.50;;;0.50;;
40591;SDS011;26301;42.832;23.918;2023-04-15T00:39:42;1.63;;;0.60;;
40591;SDS011;26301;42.832;23.918;2023-04-15T00:42:09;0.70;;;0.50;;
40591;SDS011;26301;42.832;23.918;2023-04-15T00:44:35;1.47;;;0.80;;
40591;SDS011;26301;42.832;23.918;2023-04-15T00:47:01;1.03;;;0.63;;
40591;SDS011;26301;42.832;23.918;2023-04-15T00:49:29;0.87;;;0.60;;
40591;SDS011;26301;42.832;23.918;2023-04-15T00:51:56;0.97;;;0.60;;
40591;SDS011;26301;42.832;23.918;2023-04-15T00:54:22;1.53;;;0.77;;
40591;SDS011;26301;42.832;23.918;2023-04-15T00:56:48;7.10;;;1.00;;
40591;SDS011;26301;42.832;23.918;2023-04-15T00:59:16;1.73;;;0.90;;
40591;SDS011;26301;42.832;23.918;2023-04-15T01:01:42;2.23;;;0.67;;
40591;SDS011;26301;42.832;23.918;2023-04-15T01:04:10;2.83;;;0.77;;
40591;SDS011;26301;42.832;23.918;2023-04-15T01:06:37;1.33;;;0.67;;
40591;SDS011;26301;42.832;23.918;2023-04-15T01:09:03;0.83;;;0.60;;
40591;SDS011;26301;42.832;23.918;2023-04-15T01:11:29;2.77;;;0.87;;
40591;SDS011;26301;42.832;23.918;2023-04-15T01:13:58;1.75;;;0.88;;
40591;SDS011;26301;42.832;23.918;2023-04-15T01:16:24;6.73;;;2.57;;
40591;SDS011;26301;42.832;23.918;2023-04-15T01:18:52;7.27;;;3.47;;
40591;SDS011;26301;42.832;23.918;2023-04-15T01:21:19;16.20;;;7.17;;
40591;SDS011;26301;42.832;23.918;2023-04-15T01:23:46;19.13;;;9.97;;
40591;SDS011;26301;42.832;23.918;2023-04-15T01:26:13;59.40;;;27.27;;
40591;SDS011;26301;42.832;23.918;2023-04-15T01:28:40;49.55;;;23.27;;
40591;SDS011;26301;42.832;23.918;2023-04-15T01:31:07;12.20;;;5.97;;
40591;SDS011;26301;42.832;23.918;2023-04-15T01:33:35;18.43;;;7.83;;
40591;SDS011;26301;42.832;23.918;2023-04-15T01:36:03;49.53;;;22.10;;
40591;SDS011;26301;42.832;23.918;2023-04-15T01:38:30;34.83;;;15.20;;
40591;SDS011;26301;42.832;23.918;2023-04-15T01:40:57;29.58;;;12.75;;
40591;SDS011;26301;42.832;23.918;2023-04-15T01:43:24;18.73;;;7.80;;
40591;SDS011;26301;42.832;23.918;2023-04-15T01:45:52;74.33;;;32.87;;
40591;SDS011;26301;42.832;23.918;2023-04-15T01:48:18;56.42;;;27.15;;
40591;SDS011;26301;42.832;23.918;2023-04-15T01:50:44;20.37;;;9.87;;
40591;SDS011;26301;42.832;23.918;2023-04-15T01:53:11;15.37;;;7.67;;
40591;SDS011;26301;42.832;23.918;2023-04-15T01:55:39;16.63;;;7.70;;
40591;SDS011;26301;42.832;23.918;2023-04-15T01:58:06;5.00;;;2.73;;
40591;SDS011;26301;42.832;23.918;2023-04-15T02:00:32;12.17;;;5.20;;
40591;SDS011;26301;42.832;23.918;2023-04-15T02:02:59;12.47;;;5.00;;
40591;SDS011;26301;42.832;23.918;2023-04-15T02:05:25;3.20;;;1.25;;
40591;SDS011;26301;42.832;23.918;2023-04-15T02:07:51;3.43;;;1.60;;
40591;SDS011;26301;42.832;23.918;2023-04-15T02:10:18;9.77;;;4.70;;
40591;SDS011;26301;42.832;23.918;2023-04-15T02:12:44;51.83;;;24.47;;
40591;SDS011;26301;42.832;23.918;2023-04-15T02:15:10;14.03;;;8.33;;
40591;SDS011;26301;42.832;23.918;2023-04-15T02:17:36;8.77;;;4.10;;
40591;SDS011;26301;42.832;23.918;2023-04-15T02:20:03;5.40;;;3.03;;
40591;SDS011;26301;42.832;23.918;2023-04-15T02:22:30;5.60;;;3.50;;
40591;SDS011;26301;42.832;23.918;2023-04-15T02:24:56;8.30;;;4.33;;
40591;SDS011;26301;42.832;23.918;2023-04-15T02:27:22;9.20;;;2.77;;
40591;SDS011;26301;42.832;23.918;2023-04-15T02:29:49;9.00;;;4.77;;
40591;SDS011;26301;42.832;23.918;2023-04-15T02:32:15;4.90;;;2.60;;
40591;SDS011;26301;42.832;23.918;2023-04-15T02:34:41;3.80;;;1.80;;
40591;SDS011;26301;42.832;23.918;2023-04-15T02:37:08;4.13;;;2.33;;
40591;SDS011;26301;42.832;23.918;2023-04-15T02:39:34;3.57;;;1.77;;
40591;SDS011;26301;42.832;23.918;2023-04-15T02:42:02;2.87;;;1.40;;
40591;SDS011;26301;42.832;23.918;2023-04-15T02:44:29;10.50;;;4.83;;
40591;SDS011;26301;42.832;23.918;2023-04-15T02:46:56;4.20;;;2.60;;
40591;SDS011;26301;42.832;23.918;2023-04-15T02:49:23;4.03;;;2.53;;
40591;SDS011;26301;42.832;23.918;2023-04-15T02:51:49;9.43;;;4.03;;
40591;SDS011;26301;42.832;23.918;2023-04-15T02:54:16;15.80;;;7.90;;
40591;SDS011;26301;42.832;23.918;2023-04-15T02:56:47;13.03;;;8.13;;
40591;SDS011;26301;42.832;23.918;2023-04-15T02:59:14;3.90;;;2.37;;
40591;SDS011;26301;42.832;23.918;2023-04-15T03:01:39;5.73;;;2.17;;
40591;SDS011;26301;42.832;23.918;2023-04-15T03:04:06;5.97;;;4.40;;
40591;SDS011;26301;42.832;23.918;2023-04-15T03:06:33;9.03;;;3.67;;
40591;SDS011;26301;42.832;23.918;2023-04-15T03:08:59;3.57;;;2.20;;
40591;SDS011;26301;42.832;23.918;2023-04-15T03:11:28;6.37;;;3.67;;
40591;SDS011;26301;42.832;23.918;2023-04-15T03:13:55;9.23;;;5.10;;
40591;SDS011;26301;42.832;23.918;2023-04-15T03:16:23;6.77;;;3.37;;
40591;SDS011;26301;42.832;23.918;2023-04-15T03:18:50;6.40;;;2.53;;
40591;SDS011;26301;42.832;23.918;2023-04-15T03:21:16;4.40;;;2.03;;
40591;SDS011;26301;42.832;23.918;2023-04-15T03:23:43;6.30;;;2.27;;
40591;SDS011;26301;42.832;23.918;2023-04-15T03:26:10;6.40;;;2.23;;
40591;SDS011;26301;42.832;23.918;2023-04-15T03:28:55;8.13;;;1.80;;
40591;SDS011;26301;42.832;23.918;2023-04-15T03:31:23;4.63;;;1.77;;
40591;SDS011;26301;42.832;23.918;2023-04-15T03:33:49;4.33;;;2.53;;
40591;SDS011;26301;42.832;23.918;2023-04-15T03:36:15;3.37;;;2.20;;
40591;SDS011;26301;42.832;23.918;2023-04-15T03:38:41;5.13;;;2.03;;
40591;SDS011;26301;42.832;23.918;2023-04-15T03:41:07;8.20;;;4.77;;
40591;SDS011;26301;42.832;23.918;2023-04-15T03:43:34;5.07;;;2.80;;
40591;SDS011;26301;42.832;23.918;2023-04-15T03:46:00;3.10;;;1.20;;
40591;SDS011;26301;42.832;23.918;2023-04-15T03:48:26;4.87;;;2.67;;
40591;SDS011;26301;42.832;23.918;2023-04-15T03:50:52;7.53;;;2.83;;
40591;SDS011;26301;42.832;23.918;2023-04-15T03:53:20;2.67;;;1.80;;
40591;SDS011;26301;42.832;23.918;2023-04-15T03:55:46;10.23;;;4.00;;
40591;SDS011;26301;42.832;23.918;2023-04-15T03:58:12;3.93;;;2.70;;
40591;SDS011;26301;42.832;23.918;2023-04-15T04:00:39;6.03;;;2.50;;
40591;SDS011;26301;42.832;23.918;2023-04-15T04:03:05;5.07;;;2.73;;
40591;SDS011;26301;42.832;23.918;2023-04-15T04:05:32;11.83;;;5.17;;
40591;SDS011;26301;42.832;23.918;2023-04-15T04:08:01;7.70;;;4.10;;
40591;SDS011;26301;42.832;23.918;2023-04-15T04:10:27;14.53;;;7.50;;
40591;SDS011;26301;42.832;23.918;2023-04-15T04:12:53;17.40;;;13.07;;
40591;SDS011;26301;42.832;23.918;2023-04-15T04:15:19;19.87;;;11.27;;
40591;SDS011;26301;42.832;23.918;2023-04-15T04:17:46;15.27;;;10.20;;
40591;SDS011;26301;42.832;23.918;2023-04-15T04:20:12;13.30;;;9.30;;
40591;SDS011;26301;42.832;23.918;2023-04-15T04:22:39;14.47;;;8.57;;
40591;SDS011;26301;42.832;23.918;2023-04-15T04:25:06;8.63;;;5.33;;
40591;SDS011;26301;42.832;23.918;2023-04-15T04:27:34;8.93;;;6.00;;
40591;SDS011;26301;42.832;23.918;2023-04-15T04:30:00;5.10;;;3.53;;
40591;SDS011;26301;42.832;23.918;2023-04-15T04:32:26;5.70;;;2.80;;
40591;SDS011;26301;42.832;23.918;2023-04-15T04:34:53;7.40;;;2.83;;
40591;SDS011;26301;42.832;23.918;2023-04-15T04:37:19;8.57;;;3.53;;
40591;SDS011;26301;42.832;23.918;2023-04-15T04:39:45;8.20;;;3.27;;
40591;SDS011;26301;42.832;23.918;2023-04-15T04:42:11;4.47;;;3.43;;
40591;SDS011;26301;42.832;23.918;2023-04-15T04:44:37;5.30;;;3.13;;
40591;SDS011;26301;42.832;23.918;2023-04-15T04:47:03;6.05;;;3.03;;
40591;SDS011;26301;42.832;23.918;2023-04-15T04:49:31;4.37;;;2.90;;
40591;SDS011;26301;42.832;23.918;2023-04-15T04:51:59;4.88;;;2.45;;
40591;SDS011;26301;42.832;23.918;2023-04-15T04:54:25;6.63;;;2.33;;
40591;SDS011;26301;42.832;23.918;2023-04-15T04:56:52;6.47;;;2.85;;
40591;SDS011;26301;42.832;23.918;2023-04-15T04:59:18;6.82;;;3.70;;
40591;SDS011;26301;42.832;23.918;2023-04-15T05:01:44;6.72;;;2.42;;
40591;SDS011;26301;42.832;23.918;2023-04-15T05:04:10;3.83;;;1.98;;
40591;SDS011;26301;42.832;23.918;2023-04-15T05:06:36;7.07;;;3.05;;
40591;SDS011;26301;42.832;23.918;2023-04-15T05:09:03;2.22;;;1.48;;
40591;SDS011;26301;42.832;23.918;2023-04-15T05:11:29;3.03;;;1.60;;
40591;SDS011;26301;42.832;23.918;2023-04-15T05:13:55;3.83;;;2.25;;
40591;SDS011;26301;42.832;23.918;2023-04-15T05:16:22;7.20;;;2.90;;
40591;SDS011;26301;42.832;23.918;2023-04-15T05:18:49;4.88;;;2.25;;
40591;SDS011;26301;42.832;23.918;2023-04-15T05:21:15;5.75;;;2.60;;
40591;SDS011;26301;42.832;23.918;2023-04-15T05:23:42;4.40;;;2.55;;
40591;SDS011;26301;42.832;23.918;2023-04-15T05:26:08;6.75;;;2.72;;
40591;SDS011;26301;42.832;23.918;2023-04-15T05:28:34;5.63;;;2.20;;
40591;SDS011;26301;42.832;23.918;2023-04-15T05:31:00;3.55;;;2.00;;
40591;SDS011;26301;42.832;23.918;2023-04-15T05:33:28;4.32;;;2.00;;
40591;SDS011;26301;42.832;23.918;2023-04-15T05:35:55;3.13;;;1.67;;
40591;SDS011;26301;42.832;23.918;2023-04-15T05:38:21;6.07;;;1.48;;
40591;SDS011;26301;42.832;23.918;2023-04-15T05:40:48;6.43;;;2.35;;
40591;SDS011;26301;42.832;23.918;2023-04-15T05:43:13;8.40;;;3.78;;
40591;SDS011;26301;42.832;23.918;2023-04-15T05:45:39;5.22;;;1.98;;
40591;SDS011;26301;42.832;23.918;2023-04-15T05:48:05;6.55;;;3.08;;
40591;SDS011;26301;42.832;23.918;2023-04-15T05:50:32;4.72;;;1.70;;
40591;SDS011;26301;42.832;23.918;2023-04-15T05:52:58;7.65;;;3.17;;
40591;SDS011;26301;42.832;23.918;2023-04-15T05:55:24;4.72;;;1.65;;
40591;SDS011;26301;42.832;23.918;2023-04-15T05:57:51;7.47;;;3.08;;
40591;SDS011;26301;42.832;23.918;2023-04-15T06:00:17;4.00;;;2.40;;
40591;SDS011;26301;42.832;23.918;2023-04-15T06:02:42;8.45;;;2.30;;
40591;SDS011;26301;42.832;23.918;2023-04-15T06:05:08;3.53;;;1.50;;
40591;SDS011;26301;42.832;23.918;2023-04-15T06:07:36;11.82;;;4.10;;
40591;SDS011;26301;42.832;23.918;2023-04-15T06:10:02;7.45;;;3.35;;
40591;SDS011;26301;42.832;23.918;2023-04-15T06:12:29;7.72;;;2.63;;
40591;SDS011;26301;42.832;23.918;2023-04-15T06:14:55;5.82;;;2.80;;
40591;SDS011;26301;42.832;23.918;2023-04-15T06:17:21;3.63;;;1.55;;
40591;SDS011;26301;42.832;23.918;2023-04-15T06:19:50;2.78;;;1.50;;
40591;SDS011;26301;42.832;23.918;2023-04-15T06:22:23;7.22;;;3.30;;
40591;SDS011;26301;42.832;23.918;2023-04-15T06:24:49;2.95;;;1.30;;
40591;SDS011;26301;42.832;23.918;2023-04-15T06:27:15;4.35;;;1.55;;
40591;SDS011;26301;42.832;23.918;2023-04-15T06:29:42;6.60;;;2.60;;
40591;SDS011;26301;42.832;23.918;2023-04-15T06:32:08;4.93;;;1.55;;
40591;SDS011;26301;42.832;23.918;2023-04-15T06:34:35;3.03;;;1.10;;
40591;SDS011;26301;42.832;23.918;2023-04-15T06:37:01;3.85;;;0.98;;
40591;SDS011;26301;42.832;23.918;2023-04-15T06:39:28;2.72;;;0.95;;
40591;SDS011;26301;42.832;23.918;2023-04-15T06:41:54;6.07;;;1.45;;
40591;SDS011;26301;42.832;23.918;2023-04-15T06:44:21;2.22;;;1.02;;
40591;SDS011;26301;42.832;23.918;2023-04-15T06:46:48;5.25;;;1.48;;
40591;SDS011;26301;42.832;23.918;2023-04-15T06:49:15;3.22;;;1.30;;
40591;SDS011;26301;42.832;23.918;2023-04-15T06:51:42;1.60;;;0.80;;
40591;SDS011;26301;42.832;23.918;2023-04-15T06:54:09;10.52;;;6.32;;
40591;SDS011;26301;42.832;23.918;2023-04-15T06:56:38;10.43;;;6.85;;
40591;SDS011;26301;42.832;23.918;2023-04-15T06:59:07;6.88;;;1.02;;
40591;SDS011;26301;42.832;23.918;2023-04-15T07:01:34;4.75;;;1.60;;
40591;SDS011;26301;42.832;23.918;2023-04-15T07:04:00;4.90;;;2.10;;
40591;SDS011;26301;42.832;23.918;2023-04-15T07:06:26;3.65;;;1.08;;
40591;SDS011;26301;42.832;23.918;2023-04-15T07:08:52;2.85;;;1.00;;
40591;SDS011;26301;42.832;23.918;2023-04-15T07:11:18;2.80;;;1.23;;
40591;SDS011;26301;42.832;23.918;2023-04-15T07:13:48;2.63;;;0.98;;
40591;SDS011;26301;42.832;23.918;2023-04-15T07:16:19;4.05;;;1.90;;
40591;SDS011;26301;42.832;23.918;2023-04-15T07:18:45;2.92;;;0.60;;
40591;SDS011;26301;42.832;23.918;2023-04-15T07:21:12;3.28;;;1.02;;
40591;SDS011;26301;42.832;23.918;2023-04-15T07:23:38;3.17;;;1.10;;
40591;SDS011;26301;42.832;23.918;2023-04-15T07:26:03;3.60;;;1.10;;
40591;SDS011;26301;42.832;23.918;2023-04-15T07:28:29;3.38;;;0.90;;
40591;SDS011;26301;42.832;23.918;2023-04-15T07:30:55;3.38;;;0.82;;
40591;SDS011;26301;42.832;23.918;2023-04-15T07:33:22;3.85;;;1.50;;
40591;SDS011;26301;42.832;23.918;2023-04-15T07:35:48;2.97;;;0.70;;
40591;SDS011;26301;42.832;23.918;2023-04-15T07:38:14;4.03;;;0.77;;
40591;SDS011;26301;42.832;23.918;2023-04-15T07:40:40;3.90;;;0.80;;
40591;SDS011;26301;42.832;23.918;2023-04-15T07:43:08;3.00;;;1.00;;
40591;SDS011;26301;42.832;23.918;2023-04-15T07:45:34;3.08;;;0.70;;
40591;SDS011;26301;42.832;23.918;2023-04-15T07:48:01;3.15;;;0.75;;
40591;SDS011;26301;42.832;23.918;2023-04-15T07:50:29;2.92;;;0.60;;
40591;SDS011;26301;42.832;23.918;2023-04-15T07:52:54;6.30;;;0.80;;
40591;SDS011;26301;42.832;23.918;2023-04-15T07:55:21;2.97;;;0.80;;
40591;SDS011;26301;42.832;23.918;2023-04-15T07:57:48;2.92;;;0.95;;
40591;SDS011;26301;42.832;23.918;2023-04-15T08:00:15;5.72;;;1.10;;
40591;SDS011;26301;42.832;23.918;2023-04-15T08:02:42;3.10;;;0.80;;
40591;SDS011;26301;42.832;23.918;2023-04-15T08:05:08;2.42;;;1.23;;
40591;SDS011;26301;42.832;23.918;2023-04-15T08:07:36;2.75;;;1.45;;
40591;SDS011;26301;42.832;23.918;2023-04-15T08:10:02;1.90;;;0.70;;
40591;SDS011;26301;42.832;23.918;2023-04-15T08:12:28;4.45;;;1.73;;
40591;SDS011;26301;42.832;23.918;2023-04-15T08:14:55;1.90;;;0.70;;
40591;SDS011;26301;42.832;23.918;2023-04-15T08:17:21;2.40;;;0.95;;
40591;SDS011;26301;42.832;23.918;2023-04-15T08:19:48;2.40;;;1.02;;
40591;SDS011;26301;42.832;23.918;2023-04-15T08:22:14;2.55;;;0.88;;
40591;SDS011;26301;42.832;23.918;2023-04-15T08:24:41;2.28;;;0.80;;
40591;SDS011;26301;42.832;23.918;2023-04-15T08:27:07;3.75;;;0.63;;
40591;SDS011;26301;42.832;23.918;2023-04-15T08:29:33;1.98;;;0.65;;
40591;SDS011;26301;42.832;23.918;2023-04-15T08:31:59;3.50;;;0.80;;
40591;SDS011;26301;42.832;23.918;2023-04-15T08:34:26;3.15;;;0.80;;
40591;SDS011;26301;42.832;23.918;2023-04-15T08:36:52;3.28;;;0.82;;
40591;SDS011;26301;42.832;23.918;2023-04-15T08:39:18;3.63;;;1.10;;
40591;SDS011;26301;42.832;23.918;2023-04-15T08:41:45;1.67;;;0.75;;
40591;SDS011;26301;42.832;23.918;2023-04-15T08:44:12;2.15;;;0.77;;
40591;SDS011;26301;42.832;23.918;2023-04-15T08:46:38;2.78;;;1.10;;
40591;SDS011;26301;42.832;23.918;2023-04-15T08:49:07;2.83;;;0.90;;
40591;SDS011;26301;42.832;23.918;2023-04-15T08:51:41;2.53;;;1.05;;
40591;SDS011;26301;42.832;23.918;2023-04-15T08:54:08;2.92;;;0.80;;
40591;SDS011;26301;42.832;23.918;2023-04-15T08:56:35;3.03;;;0.70;;
40591;SDS011;26301;42.832;23.918;2023-04-15T08:59:03;1.98;;;0.82;;
40591;SDS011;26301;42.832;23.918;2023-04-15T09:01:30;3.15;;;0.80;;
40591;SDS011;26301;42.832;23.918;2023-04-15T09:03:56;3.00;;;0.95;;
40591;SDS011;26301;42.832;23.918;2023-04-15T09:06:24;2.00;;;0.77;;
40591;SDS011;26301;42.832;23.918;2023-04-15T09:08:51;4.10;;;1.10;;
40591;SDS011;26301;42.832;23.918;2023-04-15T09:11:17;2.33;;;0.90;;
40591;SDS011;26301;42.832;23.918;2023-04-15T09:13:43;1.85;;;0.70;;
40591;SDS011;26301;42.832;23.918;2023-04-15T09:16:10;1.67;;;0.85;;
40591;SDS011;26301;42.832;23.918;2023-04-15T09:18:38;2.50;;;1.33;;
40591;SDS011;26301;42.832;23.918;2023-04-15T09:21:12;4.90;;;1.60;;
40591;SDS011;26301;42.832;23.918;2023-04-15T09:23:40;2.17;;;0.88;;
40591;SDS011;26301;42.832;23.918;2023-04-15T09:26:29;3.60;;;0.90;;
40591;SDS011;26301;42.832;23.918;2023-04-15T09:29:01;2.05;;;0.80;;
40591;SDS011;26301;42.832;23.918;2023-04-15T09:31:32;3.38;;;1.00;;
40591;SDS011;26301;42.832;23.918;2023-04-15T09:33:58;1.85;;;0.90;;
40591;SDS011;26301;42.832;23.918;2023-04-15T09:36:25;1.80;;;0.80;;
40591;SDS011;26301;42.832;23.918;2023-04-15T09:38:57;2.97;;;0.85;;
40591;SDS011;26301;42.832;23.918;2023-04-15T09:41:24;1.33;;;0.60;;
40591;SDS011;26301;42.832;23.918;2023-04-15T09:43:54;4.03;;;0.90;;
40591;SDS011;26301;42.832;23.918;2023-04-15T09:46:25;2.38;;;0.80;;
40591;SDS011;26301;42.832;23.918;2023-04-15T09:49:08;1.67;;;0.70;;
40591;SDS011;26301;42.832;23.918;2023-04-15T09:51:35;1.70;;;0.70;;
40591;SDS011;26301;42.832;23.918;2023-04-15T09:54:04;1.70;;;0.98;;
40591;SDS011;26301;42.832;23.918;2023-04-15T09:56:34;2.33;;;1.27;;
40591;SDS011;26301;42.832;23.918;2023-04-15T09:59:07;1.48;;;0.68;;
40591;SDS011;26301;42.832;23.918;2023-04-15T10:01:33;4.75;;;0.90;;
40591;SDS011;26301;42.832;23.918;2023-04-15T10:04:04;3.17;;;0.75;;
40591;SDS011;26301;42.832;23.918;2023-04-15T10:06:30;2.38;;;0.70;;
40591;SDS011;26301;42.832;23.918;2023-04-15T10:08:57;0.85;;;0.70;;
40591;SDS011;26301;42.832;23.918;2023-04-15T10:11:28;6.18;;;1.35;;
40591;SDS011;26301;42.832;23.918;2023-04-15T10:13:55;2.80;;;0.85;;
40591;SDS011;26301;42.832;23.918;2023-04-15T10:16:22;3.78;;;1.02;;
40591;SDS011;26301;42.832;23.918;2023-04-15T10:18:55;3.00;;;1.33;;
40591;SDS011;26301;42.832;23.918;2023-04-15T10:21:26;2.05;;;1.00;;
40591;SDS011;26301;42.832;23.918;2023-04-15T10:23:54;2.47;;;0.70;;
40591;SDS011;26301;42.832;23.918;2023-04-15T10:26:22;3.42;;;1.08;;
40591;SDS011;26301;42.832;23.918;2023-04-15T10:28:49;5.30;;;1.00;;
40591;SDS011;26301;42.832;23.918;2023-04-15T10:31:16;1.90;;;0.80;;
40591;SDS011;26301;42.832;23.918;2023-04-15T10:33:44;6.75;;;2.42;;
40591;SDS011;26301;42.832;23.918;2023-04-15T10:36:11;5.55;;;1.10;;
40591;SDS011;26301;42.832;23.918;2023-04-15T10:38:39;8.82;;;3.17;;
40591;SDS011;26301;42.832;23.918;2023-04-15T10:41:16;4.72;;;0.90;;
40591;SDS011;26301;42.832;23.918;2023-04-15T10:46:40;5.05;;;1.15;;
40591;SDS011;26301;42.832;23.918;2023-04-15T10:49:10;1.63;;;0.73;;
40591;SDS011;26301;42.832;23.918;2023-04-15T10:51:39;2.58;;;0.90;;
40591;SDS011;26301;42.832;23.918;2023-04-15T10:54:29;3.78;;;1.27;;
40591;SDS011;26301;42.832;23.918;2023-04-15T10:59:34;2.65;;;0.90;;
40591;SDS011;26301;42.832;23.918;2023-04-15T11:02:02;2.50;;;0.80;;
40591;SDS011;26301;42.832;23.918;2023-04-15T11:12:43;2.35;;;0.80;;
40591;SDS011;26301;42.832;23.918;2023-04-15T11:17:51;11.38;;;4.00;;
40591;SDS011;26301;42.832;23.918;2023-04-15T11:20:17;3.15;;;1.38;;
40591;SDS011;26301;42.832;23.918;2023-04-15T11:22:50;3.20;;;0.93;;
40591;SDS011;26301;42.832;23.918;2023-04-15T11:25:21;1.13;;;0.80;;
40591;SDS011;26301;42.832;23.918;2023-04-15T11:27:55;4.22;;;1.60;;
40591;SDS011;26301;42.832;23.918;2023-04-15T11:30:24;2.83;;;0.88;;
40591;SDS011;26301;42.832;23.918;2023-04-15T11:32:52;1.70;;;0.80;;
40591;SDS011;26301;42.832;23.918;2023-04-15T11:35:22;4.93;;;1.20;;
40591;SDS011;26301;42.832;23.918;2023-04-15T11:37:48;5.45;;;1.10;;
40591;SDS011;26301;42.832;23.918;2023-04-15T11:40:16;1.20;;;0.77;;
40591;SDS011;26301;42.832;23.918;2023-04-15T11:42:53;1.38;;;0.68;;
40591;SDS011;26301;42.832;23.918;2023-04-15T11:45:31;3.70;;;2.10;;
40591;SDS011;26301;42.832;23.918;2023-04-15T11:48:04;1.50;;;0.88;;
40591;SDS011;26301;42.832;23.918;2023-04-15T11:50:34;5.63;;;0.90;;
40591;SDS011;26301;42.832;23.918;2023-04-15T11:53:02;2.65;;;0.90;;
40591;SDS011;26301;42.832;23.918;2023-04-15T11:55:29;7.00;;;4.18;;
40591;SDS011;26301;42.832;23.918;2023-04-15T11:58:08;3.17;;;2.00;;
40591;SDS011;26301;42.832;23.918;2023-04-15T12:00:38;4.50;;;1.10;;
40591;SDS011;26301;42.832;23.918;2023-04-15T12:06:11;3.05;;;1.20;;
40591;SDS011;26301;42.832;23.918;2023-04-15T12:14:19;3.75;;;0.95;;
40591;SDS011;26301;42.832;23.918;2023-04-15T12:16:50;1.88;;;1.08;;
40591;SDS011;26301;42.832;23.918;2023-04-15T12:21:59;2.95;;;0.95;;
40591;SDS011;26301;42.832;23.918;2023-04-15T12:24:30;3.45;;;0.88;;
40591;SDS011;26301;42.832;23.918;2023-04-15T12:27:00;3.30;;;0.77;;
40591;SDS011;26301;42.832;23.918;2023-04-15T12:29:28;3.05;;;0.90;;
40591;SDS011;26301;42.832;23.918;2023-04-15T12:31:55;2.88;;;1.02;;
40591;SDS011;26301;42.832;23.918;2023-04-15T12:34:31;3.33;;;0.80;;
40591;SDS011;26301;42.832;23.918;2023-04-15T12:36:59;2.22;;;0.80;;
40591;SDS011;26301;42.832;23.918;2023-04-15T12:39:27;3.08;;;1.00;;
40591;SDS011;26301;42.832;23.918;2023-04-15T12:41:56;2.60;;;1.17;;
40591;SDS011;26301;42.832;23.918;2023-04-15T12:44:27;2.67;;;0.90;;
40591;SDS011;26301;42.832;23.918;2023-04-15T12:46:53;3.53;;;0.90;;
40591;SDS011;26301;42.832;23.918;2023-04-15T12:49:20;2.40;;;0.80;;
40591;SDS011;26301;42.832;23.918;2023-04-15T12:51:50;2.55;;;1.00;;
40591;SDS011;26301;42.832;23.918;2023-04-15T12:54:18;2.17;;;0.70;;
40591;SDS011;26301;42.832;23.918;2023-04-15T12:56:48;11.23;;;7.00;;
40591;SDS011;26301;42.832;23.918;2023-04-15T12:59:15;8.23;;;1.83;;
40591;SDS011;26301;42.832;23.918;2023-04-15T13:01:42;3.25;;;1.20;;
40591;SDS011;26301;42.832;23.918;2023-04-15T13:04:09;5.18;;;2.70;;
40591;SDS011;26301;42.832;23.918;2023-04-15T13:06:35;15.50;;;3.25;;
40591;SDS011;26301;42.832;23.918;2023-04-15T13:09:02;1.92;;;0.88;;
40591;SDS011;26301;42.832;23.918;2023-04-15T13:11:32;4.45;;;1.10;;
40591;SDS011;26301;42.832;23.918;2023-04-15T13:14:02;3.83;;;1.30;;
40591;SDS011;26301;42.832;23.918;2023-04-15T13:16:30;2.00;;;0.70;;
40591;SDS011;26301;42.832;23.918;2023-04-15T13:19:01;2.22;;;0.80;;
40591;SDS011;26301;42.832;23.918;2023-04-15T13:21:27;3.13;;;0.80;;
40591;SDS011;26301;42.832;23.918;2023-04-15T13:23:55;4.22;;;1.17;;
40591;SDS011;26301;42.832;23.918;2023-04-15T13:26:22;1.75;;;0.73;;
40591;SDS011;26301;42.832;23.918;2023-04-15T13:28:48;5.22;;;1.02;;
40591;SDS011;26301;42.832;23.918;2023-04-15T13:31:14;2.67;;;0.82;;
40591;SDS011;26301;42.832;23.918;2023-04-15T13:33:40;1.58;;;0.80;;
40591;SDS011;26301;42.832;23.918;2023-04-15T13:36:06;2.97;;;0.85;;
40591;SDS011;26301;42.832;23.918;2023-04-15T13:38:33;2.28;;;0.90;;
40591;SDS011;26301;42.832;23.918;2023-04-15T13:40:59;2.67;;;0.70;;
40591;SDS011;26301;42.832;23.918;2023-04-15T13:43:25;3.90;;;1.17;;
40591;SDS011;26301;42.832;23.918;2023-04-15T13:45:51;2.30;;;1.00;;
40591;SDS011;26301;42.832;23.918;2023-04-15T13:48:18;5.80;;;1.55;;
40591;SDS011;26301;42.832;23.918;2023-04-15T13:50:45;2.33;;;1.05;;
40591;SDS011;26301;42.832;23.918;2023-04-15T13:53:11;6.22;;;0.77;;
40591;SDS011;26301;42.832;23.918;2023-04-15T13:55:38;4.28;;;1.48;;
40591;SDS011;26301;42.832;23.918;2023-04-15T13:58:08;5.80;;;2.20;;
40591;SDS011;26301;42.832;23.918;2023-04-15T14:00:34;5.90;;;1.40;;
40591;SDS011;26301;42.832;23.918;2023-04-15T14:03:00;6.43;;;2.53;;
40591;SDS011;26301;42.832;23.918;2023-04-15T14:05:26;3.97;;;1.30;;
40591;SDS011;26301;42.832;23.918;2023-04-15T14:07:52;5.32;;;1.73;;
40591;SDS011;26301;42.832;23.918;2023-04-15T14:10:19;4.25;;;1.30;;
40591;SDS011;26301;42.832;23.918;2023-04-15T14:12:47;2.10;;;1.00;;
40591;SDS011;26301;42.832;23.918;2023-04-15T14:15:17;14.93;;;2.83;;
40591;SDS011;26301;42.832;23.918;2023-04-15T14:17:43;6.95;;;3.75;;
40591;SDS011;26301;42.832;23.918;2023-04-15T14:20:09;11.25;;;6.40;;
40591;SDS011;26301;42.832;23.918;2023-04-15T14:22:36;9.07;;;4.03;;
40591;SDS011;26301;42.832;23.918;2023-04-15T14:25:02;4.55;;;2.28;;
40591;SDS011;26301;42.832;23.918;2023-04-15T14:27:31;4.55;;;1.65;;
40591;SDS011;26301;42.832;23.918;2023-04-15T14:29:57;2.97;;;1.27;;
40591;SDS011;26301;42.832;23.918;2023-04-15T14:32:24;3.03;;;1.13;;
40591;SDS011;26301;42.832;23.918;2023-04-15T14:34:51;3.53;;;1.10;;
40591;SDS011;26301;42.832;23.918;2023-04-15T14:37:17;5.93;;;1.02;;
40591;SDS011;26301;42.832;23.918;2023-04-15T14:39:43;10.10;;;1.27;;
40591;SDS011;26301;42.832;23.918;2023-04-15T14:42:09;2.35;;;1.23;;
40591;SDS011;26301;42.832;23.918;2023-04-15T14:44:35;5.18;;;1.27;;
40591;SDS011;26301;42.832;23.918;2023-04-15T14:47:01;3.22;;;1.25;;
40591;SDS011;26301;42.832;23.918;2023-04-15T14:49:28;3.72;;;1.25;;
40591;SDS011;26301;42.832;23.918;2023-04-15T14:51:55;2.22;;;0.98;;
40591;SDS011;26301;42.832;23.918;2023-04-15T14:54:21;2.95;;;1.33;;
40591;SDS011;26301;42.832;23.918;2023-04-15T14:56:47;2.08;;;1.10;;
40591;SDS011;26301;42.832;23.918;2023-04-15T14:59:13;5.10;;;1.10;;
40591;SDS011;26301;42.832;23.918;2023-04-15T15:01:38;5.35;;;1.30;;